createdAt,value
2022-10-11T00:00:33.945Z,100815.00
2022-10-11T00:03:36.915Z,100813.59
2022-10-11T00:06:39.808Z,100812.81
2022-10-11T00:09:42.817Z,100817.72
2022-10-11T00:12:46.596Z,100815.94
2022-10-11T00:15:49.952Z,100805.66
2022-10-11T00:18:52.636Z,100813.16
2022-10-11T00:21:55.525Z,100818.31
2022-10-11T00:24:59.357Z,100809.91
2022-10-11T00:28:02.292Z,100817.09
2022-10-11T00:31:13.625Z,100811.97
2022-10-11T00:34:18.255Z,100807.97
2022-10-11T00:37:21.008Z,100806.72
2022-10-11T00:40:24.874Z,100808.78
2022-10-11T00:43:29.953Z,100802.47
2022-10-11T00:46:33.116Z,100807.63
2022-10-11T00:49:44.215Z,100811.09
2022-10-11T00:52:54.853Z,100807.13
2022-10-11T00:56:12.691Z,100804.72
2022-10-11T00:59:21.859Z,100811.91
2022-10-11T01:02:25.123Z,100801.41
2022-10-11T01:05:30.124Z,100804.09
2022-10-11T01:08:34.181Z,100795.47
2022-10-11T01:11:41.543Z,100804.84
2022-10-11T01:14:56.097Z,100796.94
2022-10-11T01:18:22.984Z,100795.47
2022-10-11T01:21:49.045Z,100786.75
2022-10-11T01:25:13.206Z,100789.56
2022-10-11T01:28:40.497Z,100785.50
2022-10-11T01:31:54.145Z,100777.41
2022-10-11T01:35:06.998Z,100766.09
2022-10-11T01:38:31.703Z,100764.19
2022-10-11T01:41:39.438Z,100773.03
2022-10-11T01:44:46.114Z,100766.81
2022-10-11T01:48:01.616Z,100771.06
2022-10-11T01:51:04.736Z,100777.47
2022-10-11T01:54:10.159Z,100769.41
2022-10-11T01:57:31.249Z,100786.16
2022-10-11T02:00:52.589Z,100787.44
2022-10-11T02:04:08.115Z,100788.00
2022-10-11T02:07:37.765Z,100793.25
2022-10-11T02:10:50.934Z,100790.69
2022-10-11T02:14:02.111Z,100794.00
2022-10-11T02:17:13.076Z,100791.78
2022-10-11T02:20:21.130Z,100794.84
2022-10-11T02:23:32.721Z,100790.88
2022-10-11T02:26:37.384Z,100797.34
2022-10-11T02:29:43.937Z,100784.19
2022-10-11T02:32:49.245Z,100778.31
2022-10-11T02:35:58.702Z,100772.31
2022-10-11T02:39:08.489Z,100775.44
2022-10-11T02:42:23.954Z,100776.69
2022-10-11T02:45:42.281Z,100772.19
2022-10-11T02:48:45.161Z,100777.84
2022-10-11T02:51:47.780Z,100768.47
2022-10-11T02:54:50.758Z,100777.81
2022-10-11T02:57:54.430Z,100781.91
2022-10-11T03:00:57.411Z,100791.34
2022-10-11T03:04:02.410Z,100792.31
2022-10-11T03:07:05.591Z,100794.66
2022-10-11T03:10:10.359Z,100795.44
2022-10-11T03:13:18.157Z,100794.81
2022-10-11T03:16:21.559Z,100800.16
2022-10-11T03:19:24.452Z,100805.25
2022-10-11T03:22:27.087Z,100811.75
2022-10-11T03:25:30.098Z,100804.00
2022-10-11T03:28:32.706Z,100806.44
2022-10-11T03:31:35.802Z,100811.84
2022-10-11T03:34:38.399Z,100806.66
2022-10-11T03:37:41.327Z,100809.56
2022-10-11T03:40:44.378Z,100813.88
2022-10-11T03:43:47.315Z,100820.19
2022-10-11T03:46:49.945Z,100821.03
2022-10-11T03:49:53.289Z,100810.06
2022-10-11T03:52:55.989Z,100818.84
2022-10-11T03:55:58.908Z,100818.41
2022-10-11T03:59:02.389Z,100818.12
2022-10-11T04:02:05.425Z,100819.50
2022-10-11T04:05:08.707Z,100821.03
2022-10-11T04:08:12.481Z,100821.53
2022-10-11T04:11:16.122Z,100821.31
2022-10-11T04:14:18.794Z,100818.81
2022-10-11T04:17:22.193Z,100817.22
2022-10-11T04:20:24.943Z,100808.16
2022-10-11T04:23:28.125Z,100805.97
2022-10-11T04:26:31.121Z,100814.19
2022-10-11T04:29:34.149Z,100825.19
2022-10-11T04:32:36.982Z,100822.28
2022-10-11T04:35:40.296Z,100812.66
2022-10-11T04:38:43.021Z,100824.38
2022-10-11T04:41:46.118Z,100824.31
2022-10-11T04:44:48.948Z,100821.59
2022-10-11T04:47:51.919Z,100821.81
2022-10-11T04:50:54.659Z,100818.03
2022-10-11T04:53:57.632Z,100825.34
2022-10-11T04:57:00.422Z,100834.19
2022-10-11T05:00:05.070Z,100830.25
2022-10-11T05:03:07.739Z,100836.75
2022-10-11T05:06:11.337Z,100843.19
2022-10-11T05:09:14.396Z,100842.41
2022-10-11T05:12:17.752Z,100841.50
2022-10-11T05:15:20.480Z,100832.66
2022-10-11T05:18:24.327Z,100837.37
2022-10-11T05:21:28.860Z,100836.31
2022-10-11T05:24:31.923Z,100839.28
2022-10-11T05:27:34.670Z,100849.34
2022-10-11T05:30:37.694Z,100850.69
2022-10-11T05:33:41.024Z,100858.72
2022-10-11T05:36:45.139Z,100870.09
2022-10-11T05:39:47.701Z,100865.34
2022-10-11T05:42:50.603Z,100873.94
2022-10-11T05:45:53.248Z,100869.25
2022-10-11T05:48:56.234Z,100869.44
2022-10-11T05:51:59.310Z,100876.41
2022-10-11T05:55:03.749Z,100873.50
2022-10-11T05:58:07.946Z,100883.22
2022-10-11T06:01:27.701Z,100896.25
2022-10-11T06:04:31.444Z,100899.91
2022-10-11T06:07:36.634Z,100887.91
2022-10-11T06:10:40.613Z,100897.03
2022-10-11T06:13:44.524Z,100897.78
2022-10-11T06:16:47.485Z,100895.66
2022-10-11T06:19:51.189Z,100895.78
2022-10-11T06:22:54.963Z,100903.47
2022-10-11T06:26:07.323Z,100909.50
2022-10-11T06:29:10.931Z,100893.94
2022-10-11T06:32:13.609Z,100901.09
2022-10-11T06:35:18.025Z,100900.81
2022-10-11T06:38:21.864Z,100906.59
2022-10-11T06:41:27.324Z,100896.12
2022-10-11T06:44:30.037Z,100907.16
2022-10-11T06:47:32.979Z,100907.28
2022-10-11T06:50:58.486Z,100910.53
2022-10-11T06:54:03.894Z,100910.34
2022-10-11T06:57:06.557Z,100908.81
2022-10-11T07:00:12.834Z,100908.31
2022-10-11T07:03:15.638Z,100912.25
2022-10-11T07:06:21.090Z,100921.16
2022-10-11T07:09:23.842Z,100925.81
2022-10-11T07:12:26.776Z,100926.53
2022-10-11T07:15:29.470Z,100924.56
2022-10-11T07:18:33.028Z,100932.53
2022-10-11T07:21:38.624Z,100933.69
2022-10-11T07:24:41.521Z,100939.81
2022-10-11T07:27:44.141Z,100938.03
2022-10-11T07:30:47.643Z,100933.41
2022-10-11T07:33:50.262Z,100940.72
2022-10-11T07:36:53.218Z,100941.28
2022-10-11T07:39:57.081Z,100939.81
2022-10-11T07:43:01.068Z,100939.50
2022-10-11T07:46:05.916Z,100931.19
2022-10-11T07:49:09.118Z,100929.94
2022-10-11T07:52:12.937Z,100934.81
2022-10-11T07:55:16.305Z,100939.22
2022-10-11T07:58:18.855Z,100935.63
2022-10-11T08:01:22.425Z,100934.84
2022-10-11T08:04:25.487Z,100942.78
2022-10-11T08:07:29.950Z,100940.81
2022-10-11T08:10:38.941Z,100941.25
2022-10-11T08:13:41.689Z,100947.66
2022-10-11T08:16:44.988Z,100952.44
2022-10-11T08:19:47.728Z,100948.84
2022-10-11T08:22:50.665Z,100954.84
2022-10-11T08:25:58.312Z,100962.87
2022-10-11T08:29:05.409Z,100964.09
2022-10-11T08:32:12.093Z,100952.84
2022-10-11T08:35:17.560Z,100950.69
2022-10-11T08:38:21.490Z,100949.59
2022-10-11T08:41:33.585Z,100942.94
2022-10-11T08:48:18.731Z,100931.03
2022-10-11T08:51:27.738Z,100929.75
2022-10-11T08:54:44.699Z,100931.69
2022-10-11T08:57:53.965Z,100935.09
2022-10-11T09:00:58.141Z,100934.84
2022-10-11T09:04:00.800Z,100943.72
2022-10-11T09:07:40.912Z,100934.94
2022-10-11T09:10:46.307Z,100923.69
2022-10-11T09:14:01.320Z,100936.19
2022-10-11T09:17:09.896Z,100934.69
2022-10-11T09:20:15.646Z,100934.94
2022-10-11T09:23:40.141Z,100924.56
2022-10-11T09:26:56.885Z,100929.84
2022-10-11T09:30:16.638Z,100937.75
2022-10-11T09:33:34.909Z,100944.66
2022-10-11T09:37:02.007Z,100943.47
2022-10-11T09:40:11.051Z,100936.94
2022-10-11T09:43:14.874Z,100941.34
2022-10-11T09:46:41.317Z,100936.06
2022-10-11T09:49:58.991Z,100933.94
2022-10-11T09:53:07.988Z,100941.06
2022-10-11T09:56:11.418Z,100940.16
2022-10-11T09:59:35.292Z,100943.53
2022-10-11T10:02:47.693Z,100939.59
2022-10-11T10:06:05.568Z,100931.19
2022-10-11T10:09:31.156Z,100926.34
2022-10-11T10:12:34.392Z,100927.56
2022-10-11T10:15:45.340Z,100927.78
2022-10-11T10:19:16.041Z,100933.00
2022-10-11T10:22:30.221Z,100927.75
2022-10-11T10:25:42.304Z,100918.13
2022-10-11T10:29:15.016Z,100923.69
2022-10-11T10:32:28.120Z,100915.63
2022-10-11T10:35:46.361Z,100918.78
2022-10-11T10:38:59.772Z,100909.22
2022-10-11T10:42:05.351Z,100905.44
2022-10-11T10:45:20.077Z,100910.38
2022-10-11T10:48:53.762Z,100909.09
2022-10-11T10:52:28.022Z,100907.13
2022-10-11T10:55:46.699Z,100907.19
2022-10-11T10:59:19.872Z,100914.78
2022-10-11T11:02:40.271Z,100914.06
2022-10-11T11:05:52.780Z,100902.97
2022-10-11T11:09:07.150Z,100902.19
2022-10-11T11:12:24.516Z,100904.13
2022-10-11T11:16:00.100Z,100904.25
2022-10-11T11:19:03.572Z,100906.31
2022-10-11T11:22:15.137Z,100906.16
2022-10-11T11:25:27.577Z,100889.84
2022-10-11T11:28:45.501Z,100896.44
2022-10-11T11:32:19.436Z,100896.50
2022-10-11T11:35:31.499Z,100903.53
2022-10-11T11:39:09.826Z,100902.59
2022-10-11T11:42:21.336Z,100895.03
2022-10-11T11:45:33.826Z,100904.41
2022-10-11T11:48:38.979Z,100907.13
2022-10-11T11:51:45.531Z,100901.59
2022-10-11T11:55:04.003Z,100894.16
2022-10-11T11:58:16.303Z,100894.78
2022-10-11T12:01:21.540Z,100892.59
2022-10-11T12:04:36.140Z,100890.78
2022-10-11T12:08:01.599Z,100888.56
2022-10-11T12:11:05.025Z,100888.56
2022-10-11T12:14:35.059Z,100883.22
2022-10-11T12:17:59.353Z,100878.81
2022-10-11T12:21:09.647Z,100868.47
2022-10-11T12:24:23.419Z,100866.41
2022-10-11T12:27:44.584Z,100862.47
2022-10-11T12:30:47.396Z,100878.31
2022-10-11T12:33:54.904Z,100874.81
2022-10-11T12:37:04.531Z,100883.28
2022-10-11T12:40:42.043Z,100868.25
2022-10-11T12:43:50.692Z,100879.66
2022-10-11T12:46:54.609Z,100873.09
2022-10-11T12:50:11.879Z,100880.72
2022-10-11T12:54:02.278Z,100877.72
2022-10-11T12:57:46.591Z,100872.47
2022-10-11T13:00:52.630Z,100868.44
2022-10-11T13:04:03.775Z,100862.16
2022-10-11T13:07:15.239Z,100860.19
2022-10-11T13:10:25.231Z,100872.25
2022-10-11T13:13:33.667Z,100863.81
2022-10-11T13:16:48.837Z,100873.56
2022-10-11T13:20:00.613Z,100872.06
2022-10-11T13:23:03.566Z,100873.66
2022-10-11T13:26:08.128Z,100868.16
2022-10-11T13:29:18.518Z,100875.62
2022-10-11T13:32:27.529Z,100877.78
2022-10-11T13:35:35.473Z,100872.22
2022-10-11T13:38:38.133Z,100877.66
2022-10-11T13:41:42.310Z,100876.28
2022-10-11T13:44:46.533Z,100880.28
2022-10-11T13:47:51.708Z,100871.34
2022-10-11T13:51:06.799Z,100877.94
2022-10-11T13:54:13.470Z,100872.09
2022-10-11T13:57:16.717Z,100880.63
2022-10-11T14:00:28.725Z,100883.84
2022-10-11T14:03:47.979Z,100878.75
2022-10-11T14:07:02.789Z,100878.53
2022-10-11T14:10:07.429Z,100881.16
2022-10-11T14:13:46.588Z,100882.31
2022-10-11T14:17:05.323Z,100887.13
2022-10-11T14:20:17.016Z,100889.34
2022-10-11T14:23:21.285Z,100884.66
2022-10-11T14:26:25.717Z,100888.03
2022-10-11T14:29:33.695Z,100899.72
2022-10-11T14:32:36.720Z,100896.16
2022-10-11T14:35:42.479Z,100895.75
2022-10-11T14:38:47.420Z,100896.19
2022-10-11T14:41:51.425Z,100892.69
2022-10-11T14:44:54.361Z,100894.72
2022-10-11T14:47:57.401Z,100892.81
2022-10-11T14:51:03.282Z,100892.81
2022-10-11T14:54:06.954Z,100893.66
2022-10-11T14:57:12.494Z,100898.50
2022-10-11T15:00:20.813Z,100902.56
2022-10-11T15:03:23.356Z,100899.75
2022-10-11T15:06:30.286Z,100900.19
2022-10-11T15:09:32.946Z,100903.78
2022-10-11T15:12:37.463Z,100908.25
2022-10-11T15:15:43.882Z,100905.06
2022-10-11T15:18:52.125Z,100901.09
2022-10-11T15:21:54.852Z,100905.91
2022-10-11T15:25:00.430Z,100907.16
2022-10-11T15:28:03.502Z,100909.97
2022-10-11T15:31:06.518Z,100915.22
2022-10-11T15:34:09.251Z,100917.22
2022-10-11T15:37:12.296Z,100924.03
2022-10-11T15:40:22.304Z,100922.03
2022-10-11T15:43:27.622Z,100927.63
2022-10-11T15:46:30.457Z,100914.81
2022-10-11T15:49:33.558Z,100922.00
2022-10-11T15:52:37.001Z,100916.78
2022-10-11T15:55:52.171Z,100928.78
2022-10-11T15:58:54.743Z,100929.53
2022-10-11T16:01:57.774Z,100931.91
2022-10-11T16:05:00.687Z,100939.44
2022-10-11T16:08:04.018Z,100939.38
2022-10-11T16:11:08.878Z,100938.16
2022-10-11T16:14:11.559Z,100938.91
2022-10-11T16:17:14.393Z,100954.38
2022-10-11T16:20:22.388Z,100950.69
2022-10-11T16:23:25.379Z,100951.87
2022-10-11T16:26:28.282Z,100955.09
2022-10-11T16:29:31.330Z,100951.06
2022-10-11T16:32:34.563Z,100952.66
2022-10-11T16:35:43.100Z,100955.47
2022-10-11T16:38:45.698Z,100964.38
2022-10-11T16:41:48.697Z,100962.37
2022-10-11T16:44:51.561Z,100965.53
2022-10-11T16:47:54.481Z,100972.53
2022-10-11T16:51:05.610Z,100968.34
2022-10-11T16:54:08.534Z,100981.22
2022-10-11T16:57:12.870Z,100976.06
2022-10-11T17:00:16.751Z,100976.34
2022-10-11T17:03:19.438Z,100972.44
2022-10-11T17:06:23.121Z,100981.97
2022-10-11T17:09:26.203Z,100984.44
2022-10-11T17:12:29.513Z,100980.44
2022-10-11T17:15:32.117Z,100983.72
2022-10-11T17:18:35.169Z,100991.75
2022-10-11T17:21:38.492Z,100991.62
2022-10-11T17:24:41.486Z,100995.22
2022-10-11T17:27:44.077Z,100994.72
2022-10-11T17:30:55.459Z,100999.75
2022-10-11T17:34:00.182Z,100993.75
2022-10-11T17:37:03.633Z,100996.09
2022-10-11T17:40:06.770Z,100998.38
2022-10-11T17:43:10.760Z,101003.34
2022-10-11T17:46:15.655Z,101003.25
2022-10-11T17:49:18.860Z,101002.28
2022-10-11T17:52:21.628Z,101008.69
2022-10-11T17:55:24.514Z,101001.78
2022-10-11T17:58:28.859Z,101000.75
2022-10-11T18:01:32.563Z,100994.66
2022-10-11T18:04:35.897Z,100997.25
2022-10-11T18:07:38.597Z,100996.37
2022-10-11T18:10:46.725Z,101004.78
2022-10-11T18:13:52.136Z,100992.63
2022-10-11T18:16:56.561Z,100987.72
2022-10-11T18:20:00.611Z,100998.63
2022-10-11T18:23:05.094Z,101001.72
2022-10-11T18:26:13.547Z,100998.47
2022-10-11T18:29:18.031Z,100996.28
2022-10-11T18:32:21.109Z,100987.50
2022-10-11T18:35:24.290Z,100993.59
2022-10-11T18:38:27.059Z,101001.72
2022-10-11T18:41:34.200Z,101001.72
2022-10-11T18:44:37.010Z,100997.00
2022-10-11T18:47:40.303Z,101001.56
2022-10-11T18:50:43.259Z,101006.69
2022-10-11T18:53:47.300Z,101000.03
2022-10-11T18:56:51.812Z,101003.59
2022-10-11T18:59:55.134Z,101001.75
2022-10-11T19:02:57.792Z,101006.94
2022-10-11T19:06:18.405Z,101005.59
2022-10-11T19:09:25.432Z,101000.72
2022-10-11T19:12:28.527Z,101004.47
2022-10-11T19:15:33.651Z,101008.72
2022-10-11T19:18:41.701Z,101005.25
2022-10-11T19:21:49.262Z,101012.53
2022-10-11T19:24:52.588Z,101008.84
2022-10-11T19:27:55.725Z,101006.59
2022-10-11T19:31:10.021Z,101008.25
2022-10-11T19:34:15.943Z,101008.19
2022-10-11T19:37:20.268Z,101016.81
2022-10-11T19:40:23.097Z,101018.94
2022-10-11T19:43:26.168Z,101025.47
2022-10-11T19:46:50.348Z,101015.66
2022-10-11T19:49:52.447Z,101025.78
2022-10-11T19:52:55.105Z,101029.69
2022-10-11T19:56:10.323Z,101031.06
2022-10-11T19:59:13.728Z,101037.75
2022-10-11T20:02:17.944Z,101027.78
2022-10-11T20:05:21.723Z,101030.34
2022-10-11T20:08:24.340Z,101041.22
2022-10-11T20:11:27.632Z,101038.09
2022-10-11T20:14:30.487Z,101041.06
2022-10-11T20:17:51.338Z,101040.34
2022-10-11T20:20:55.981Z,101035.31
2022-10-11T20:24:04.141Z,101042.84
2022-10-11T20:27:06.910Z,101046.06
2022-10-11T20:30:11.292Z,101046.50
2022-10-11T20:33:13.851Z,101044.81
2022-10-11T20:36:19.569Z,101039.25
2022-10-11T20:39:22.160Z,101043.03
2022-10-11T20:42:29.698Z,101051.38
2022-10-11T20:45:32.691Z,101051.91
2022-10-11T20:48:37.019Z,101053.72
2022-10-11T20:51:42.009Z,101056.00
2022-10-11T20:54:44.899Z,101053.59
2022-10-11T20:57:48.287Z,101054.25
2022-10-11T21:00:52.145Z,101052.81
2022-10-11T21:03:57.291Z,101049.84
2022-10-11T21:07:00.194Z,101045.53
2022-10-11T21:10:02.785Z,101049.78
2022-10-11T21:13:05.833Z,101050.13
2022-10-11T21:16:13.560Z,101048.53
2022-10-11T21:19:16.488Z,101050.41
2022-10-11T21:22:19.485Z,101050.94
2022-10-11T21:25:22.411Z,101049.06
2022-10-11T21:28:25.135Z,101054.44
2022-10-11T21:31:32.881Z,101053.00
2022-10-11T21:34:36.734Z,101057.44
2022-10-11T21:37:39.831Z,101047.50
2022-10-11T21:40:42.553Z,101054.78
2022-10-11T21:43:47.731Z,101051.00
2022-10-11T21:47:07.384Z,101059.81
2022-10-11T21:50:10.916Z,101058.81
2022-10-11T21:53:14.836Z,101058.00
2022-10-11T21:56:18.432Z,101057.53
2022-10-11T21:59:21.084Z,101053.34
2022-10-11T22:02:25.574Z,101052.62
2022-10-11T22:05:28.438Z,101051.41
2022-10-11T22:08:31.604Z,101046.84
2022-10-11T22:11:34.833Z,101048.59
2022-10-11T22:14:37.433Z,101057.53
2022-10-11T22:17:40.313Z,101050.56
2022-10-11T22:20:42.984Z,101059.91
2022-10-11T22:23:48.664Z,101059.22
2022-10-11T22:26:51.255Z,101045.19
2022-10-11T22:29:54.084Z,101047.31
2022-10-11T22:32:57.121Z,101054.72
2022-10-11T22:36:01.906Z,101046.22
2022-10-11T22:39:08.397Z,101043.75
2022-10-11T22:42:11.546Z,101048.69
2022-10-11T22:45:14.119Z,101049.41
2022-10-11T22:48:17.069Z,101049.81
2022-10-11T22:51:20.659Z,101032.50
2022-10-11T22:54:23.684Z,101034.81
2022-10-11T22:57:26.280Z,101046.22
2022-10-11T23:00:29.312Z,101045.94
2022-10-11T23:03:32.697Z,101057.94
2022-10-11T23:06:35.700Z,101068.50
2022-10-11T23:09:38.262Z,101048.16
2022-10-11T23:12:41.322Z,101050.75
2022-10-11T23:15:43.944Z,101049.72
2022-10-11T23:18:46.796Z,101052.44
2022-10-11T23:21:49.535Z,101058.09
2022-10-11T23:24:53.562Z,101044.72
2022-10-11T23:27:56.183Z,101056.09
2022-10-11T23:30:59.136Z,101058.56
2022-10-11T23:34:01.734Z,101057.25
2022-10-11T23:37:05.409Z,101059.84
2022-10-11T23:40:11.330Z,101065.78
2022-10-11T23:43:14.350Z,101072.25
2022-10-11T23:46:17.092Z,101071.03
2022-10-11T23:49:19.946Z,101073.69
2022-10-11T23:52:22.539Z,101077.91
2022-10-11T23:55:25.435Z,101075.34
2022-10-11T23:58:28.074Z,101078.13
